Time;durP1;ratioP1;P1;durP2;ratioP2;P2;SDS_P1;SDS_P2;PMS_P1;PMS_P2;Temp;Humidity;BMP_temperature;BMP_pressure;BME280_temperature;BME280_humidity;BME280_pressure;Samples;Min_cycle;Max_cycle;Signal;HPM_P1;HPM_P2
2023/01/22 00:00:12;;;;;;;40.42;16.20;;;;;;;;;;5024585;28;20026;-68
2023/01/22 00:02:37;;;;;;;47.42;17.35;;;;;;;;;;5044981;28;20031;-68
2023/01/22 00:05:03;;;;;;;42.78;17.90;;;;;;;;;;5048514;28;20905;-68
2023/01/22 00:07:28;;;;;;;40.35;16.90;;;;;;;;;;5042685;28;20115;-68
2023/01/22 00:09:53;;;;;;;36.77;16.93;;;;;;;;;;5043941;28;20020;-68
2023/01/22 00:12:18;;;;;;;40.10;15.98;;;;;;;;;;5047263;28;20283;-68
2023/01/22 00:14:43;;;;;;;37.87;16.57;;;;;;;;;;5050643;28;20064;-68
2023/01/22 00:17:09;;;;;;;38.47;15.60;;;;;;;;;;5045956;28;20272;-68
2023/01/22 00:19:34;;;;;;;39.63;16.75;;;;;;;;;;5047310;28;20278;-68
2023/01/22 00:21:59;;;;;;;39.33;15.85;;;;;;;;;;5047377;28;20020;-69
2023/01/22 00:24:25;;;;;;;40.88;16.27;;;;;;;;;;5041414;28;20449;-69
2023/01/22 00:26:50;;;;;;;32.13;14.45;;;;;;;;;;5049137;28;20071;-69
2023/01/22 00:29:15;;;;;;;32.88;14.52;;;;;;;;;;5046784;28;20017;-68
2023/01/22 00:31:40;;;;;;;40.25;19.38;;;;;;;;;;5048751;28;20473;-68
2023/01/22 00:34:07;;;;;;;38.87;15.53;;;;;;;;;;5043639;28;20234;-68
2023/01/22 00:36:32;;;;;;;36.95;15.07;;;;;;;;;;5044390;28;20275;-68
2023/01/22 00:38:57;;;;;;;34.30;15.25;;;;;;;;;;5046854;28;20032;-68
2023/01/22 00:41:22;;;;;;;38.60;17.20;;;;;;;;;;5044761;28;20022;-68
2023/01/22 00:43:48;;;;;;;42.50;17.27;;;;;;;;;;5046861;28;20532;-68
2023/01/22 00:46:14;;;;;;;38.08;17.38;;;;;;;;;;5044916;28;20033;-68
2023/01/22 00:48:39;;;;;;;40.05;17.42;;;;;;;;;;5044150;28;20027;-68
2023/01/22 00:51:07;;;;;;;41.90;18.17;;;;;;;;;;5047961;28;20017;-68
2023/01/22 00:53:32;;;;;;;47.20;19.85;;;;;;;;;;5044947;28;20091;-68
2023/01/22 00:55:59;;;;;;;43.35;17.85;;;;;;;;;;5048121;28;20576;-68
2023/01/22 00:58:24;;;;;;;38.80;17.55;;;;;;;;;;5046352;28;20031;-68
2023/01/22 01:00:50;;;;;;;38.53;17.27;;;;;;;;;;5046810;28;20388;-69
2023/01/22 01:03:29;;;;;;;43.10;19.02;;;;;;;;;;5048630;28;20043;-68
2023/01/22 01:06:05;;;;;;;48.25;19.80;;;;;;;;;;5048547;28;20581;-69
2023/01/22 01:08:32;;;;;;;38.58;17.42;;;;;;;;;;5043986;28;20118;-68
2023/01/22 01:10:58;;;;;;;39.58;17.92;;;;;;;;;;5049251;28;20580;-68
2023/01/22 01:13:24;;;;;;;37.78;16.33;;;;;;;;;;5028920;28;20351;-67
2023/01/22 01:15:49;;;;;;;45.70;19.38;;;;;;;;;;5048308;28;20075;-67
2023/01/22 01:18:15;;;;;;;46.08;18.77;;;;;;;;;;5054600;28;20071;-67
2023/01/22 01:20:40;;;;;;;40.85;17.67;;;;;;;;;;5031519;28;20068;-67
2023/01/22 01:23:05;;;;;;;36.50;15.65;;;;;;;;;;5025949;28;20504;-68
2023/01/22 01:25:30;;;;;;;36.75;16.08;;;;;;;;;;5052406;28;20112;-68
2023/01/22 01:27:56;;;;;;;40.20;18.20;;;;;;;;;;5046045;28;20036;-68
2023/01/22 01:30:21;;;;;;;46.97;18.13;;;;;;;;;;5045665;28;20033;-68
2023/01/22 01:32:46;;;;;;;42.85;19.40;;;;;;;;;;5047566;28;20095;-67
2023/01/22 01:35:11;;;;;;;43.30;17.98;;;;;;;;;;5048451;28;20029;-67
2023/01/22 01:37:36;;;;;;;37.45;16.83;;;;;;;;;;5048568;28;20021;-67
2023/01/22 01:40:02;;;;;;;48.60;19.55;;;;;;;;;;5051244;28;20024;-67
2023/01/22 01:42:31;;;;;;;43.58;18.73;;;;;;;;;;5047227;28;20057;-68
2023/01/22 01:45:15;;;;;;;40.88;17.77;;;;;;;;;;5046809;28;20034;-68
2023/01/22 01:47:40;;;;;;;45.63;19.67;;;;;;;;;;5045529;28;20496;-68
2023/01/22 01:50:05;;;;;;;41.00;17.00;;;;;;;;;;5047110;28;20021;-68
2023/01/22 01:52:30;;;;;;;41.47;17.33;;;;;;;;;;5043858;28;20062;-68
2023/01/22 01:54:56;;;;;;;45.58;17.83;;;;;;;;;;5050490;28;20021;-68
2023/01/22 01:57:24;;;;;;;48.97;20.10;;;;;;;;;;5050605;28;20100;-68
2023/01/22 01:59:50;;;;;;;43.50;19.38;;;;;;;;;;5050101;28;20017;-68
2023/01/22 02:02:15;;;;;;;41.15;18.27;;;;;;;;;;5030489;28;20054;-68
2023/01/22 02:04:41;;;;;;;39.05;17.02;;;;;;;;;;5032858;28;20020;-68
2023/01/22 02:07:06;;;;;;;40.15;17.83;;;;;;;;;;5049016;28;20492;-68
2023/01/22 02:09:31;;;;;;;48.95;19.38;;;;;;;;;;5049979;28;20017;-68
2023/01/22 02:11:56;;;;;;;38.45;18.52;;;;;;;;;;5044565;28;20025;-68
2023/01/22 02:14:24;;;;;;;39.08;16.60;;;;;;;;;;5047551;28;20025;-68
2023/01/22 02:17:00;;;;;;;39.15;16.52;;;;;;;;;;5045376;28;20035;-69
2023/01/22 02:19:25;;;;;;;37.22;17.40;;;;;;;;;;5048340;28;20434;-69
2023/01/22 02:21:50;;;;;;;38.72;18.55;;;;;;;;;;5044152;28;20112;-69
2023/01/22 02:24:15;;;;;;;42.10;17.38;;;;;;;;;;5047752;28;20056;-69
2023/01/22 02:26:42;;;;;;;38.72;17.90;;;;;;;;;;5050134;28;20017;-69
2023/01/22 02:29:08;;;;;;;46.92;18.55;;;;;;;;;;5042021;28;20568;-69
2023/01/22 02:31:34;;;;;;;35.60;17.02;;;;;;;;;;5046264;28;20108;-68
2023/01/22 02:34:02;;;;;;;40.28;18.65;;;;;;;;;;5050330;28;20029;-69
2023/01/22 02:36:28;;;;;;;40.78;17.17;;;;;;;;;;5051246;28;20090;-69
2023/01/22 02:38:53;;;;;;;39.95;16.83;;;;;;;;;;5047514;28;20545;-69
2023/01/22 02:41:18;;;;;;;38.13;17.95;;;;;;;;;;5052059;28;20136;-68
2023/01/22 02:43:44;;;;;;;37.80;18.52;;;;;;;;;;5064746;23;20502;-68
2023/01/22 02:46:09;;;;;;;39.42;17.27;;;;;;;;;;5028620;28;20072;-68
2023/01/22 02:48:34;;;;;;;39.20;18.80;;;;;;;;;;5026838;28;20014;-68
2023/01/22 02:50:59;;;;;;;39.30;16.95;;;;;;;;;;5027480;28;20063;-69
2023/01/22 02:53:25;;;;;;;42.10;17.27;;;;;;;;;;5028979;28;20057;-68
2023/01/22 02:55:50;;;;;;;42.67;18.70;;;;;;;;;;5031858;28;20112;-68
2023/01/22 02:58:16;;;;;;;43.42;18.63;;;;;;;;;;5030045;28;20060;-68
2023/01/22 03:00:41;;;;;;;43.72;18.65;;;;;;;;;;5031761;28;20390;-68
2023/01/22 03:03:06;;;;;;;39.22;18.60;;;;;;;;;;5030416;28;20448;-68
2023/01/22 03:05:32;;;;;;;44.10;19.13;;;;;;;;;;5026222;28;20022;-68
2023/01/22 03:07:57;;;;;;;37.53;17.00;;;;;;;;;;5029135;28;20032;-68
2023/01/22 03:10:22;;;;;;;40.22;17.73;;;;;;;;;;5029815;28;20017;-68
2023/01/22 03:21:13;;;;;;;42.53;19.48;;;;;;;;;;5028739;28;20060;-68
2023/01/22 03:23:38;;;;;;;36.88;17.38;;;;;;;;;;5025753;28;20022;-68
2023/01/22 03:26:04;;;;;;;39.30;18.92;;;;;;;;;;5024835;28;20013;-68
2023/01/22 03:28:29;;;;;;;38.50;18.42;;;;;;;;;;5026481;28;20159;-68
2023/01/22 03:30:54;;;;;;;35.83;17.27;;;;;;;;;;5025541;28;20090;-68
2023/01/22 03:33:19;;;;;;;39.15;17.67;;;;;;;;;;5029044;28;20346;-68
2023/01/22 03:35:44;;;;;;;35.70;16.50;;;;;;;;;;5029848;28;20025;-68
2023/01/22 03:38:10;;;;;;;42.30;17.87;;;;;;;;;;5026102;28;20036;-68
2023/01/22 03:40:35;;;;;;;37.42;18.02;;;;;;;;;;5026911;28;20279;-68
2023/01/22 03:43:00;;;;;;;34.38;15.82;;;;;;;;;;5021039;28;20014;-68
2023/01/22 03:45:25;;;;;;;37.38;16.73;;;;;;;;;;5022132;28;20026;-68
2023/01/22 03:47:52;;;;;;;36.78;17.17;;;;;;;;;;5028322;28;20025;-68
2023/01/22 03:50:17;;;;;;;38.05;18.20;;;;;;;;;;5026752;28;20083;-68
2023/01/22 03:52:42;;;;;;;35.63;17.63;;;;;;;;;;5027409;28;20104;-68
2023/01/22 03:55:07;;;;;;;33.30;15.30;;;;;;;;;;5028141;28;20650;-68
2023/01/22 03:57:33;;;;;;;35.47;16.42;;;;;;;;;;5024400;28;20278;-68
2023/01/22 04:00:00;;;;;;;35.78;16.83;;;;;;;;;;5024177;28;20508;-68
2023/01/22 04:02:26;;;;;;;37.30;18.17;;;;;;;;;;5026668;28;20079;-68
2023/01/22 04:04:51;;;;;;;34.83;16.83;;;;;;;;;;5028261;28;20292;-68
2023/01/22 04:07:16;;;;;;;40.72;17.88;;;;;;;;;;5023257;28;20044;-68
2023/01/22 04:09:42;;;;;;;33.42;15.95;;;;;;;;;;5026206;28;20041;-68
2023/01/22 04:12:07;;;;;;;30.77;15.40;;;;;;;;;;5029887;28;20101;-68
2023/01/22 04:14:33;;;;;;;33.20;16.67;;;;;;;;;;5027039;28;20022;-68
2023/01/22 04:16:58;;;;;;;36.13;17.07;;;;;;;;;;5025005;28;20494;-69
2023/01/22 04:19:23;;;;;;;37.17;17.20;;;;;;;;;;5026668;28;20367;-68
2023/01/22 04:21:48;;;;;;;37.58;17.77;;;;;;;;;;5025053;28;20393;-68
2023/01/22 04:24:13;;;;;;;35.78;16.02;;;;;;;;;;5022380;28;20458;-68
2023/01/22 04:26:38;;;;;;;39.45;18.17;;;;;;;;;;5027792;28;20021;-68
2023/01/22 04:29:04;;;;;;;37.25;16.90;;;;;;;;;;5024386;28;20018;-68
2023/01/22 04:31:29;;;;;;;35.00;17.15;;;;;;;;;;5021899;28;20497;-68
2023/01/22 04:33:54;;;;;;;37.42;18.33;;;;;;;;;;5024160;28;20025;-68
2023/01/22 04:36:19;;;;;;;34.63;17.53;;;;;;;;;;5002370;28;20018;-68
2023/01/22 04:38:44;;;;;;;33.28;16.45;;;;;;;;;;5022139;28;20334;-68
2023/01/22 04:41:10;;;;;;;35.20;17.42;;;;;;;;;;5022456;28;20396;-68
2023/01/22 04:43:35;;;;;;;33.43;16.33;;;;;;;;;;5023233;28;20021;-68
2023/01/22 04:46:00;;;;;;;35.80;17.65;;;;;;;;;;5022290;28;20272;-68
2023/01/22 04:48:25;;;;;;;33.70;16.55;;;;;;;;;;5023353;28;20474;-68
2023/01/22 04:50:50;;;;;;;33.55;16.70;;;;;;;;;;5023716;28;20398;-68
2023/01/22 04:53:15;;;;;;;37.27;18.03;;;;;;;;;;5017777;28;20037;-68
2023/01/22 04:55:41;;;;;;;34.78;17.30;;;;;;;;;;5024283;28;20346;-68
2023/01/22 04:58:06;;;;;;;35.08;17.05;;;;;;;;;;5004026;28;20022;-68
2023/01/22 05:00:31;;;;;;;35.05;16.95;;;;;;;;;;5018595;28;20036;-68
2023/01/22 05:02:57;;;;;;;35.05;18.13;;;;;;;;;;5002809;28;20049;-68
2023/01/22 05:05:22;;;;;;;33.80;16.80;;;;;;;;;;5024073;28;20092;-68
2023/01/22 05:07:48;;;;;;;34.13;17.63;;;;;;;;;;5023251;28;20481;-69
2023/01/22 05:10:13;;;;;;;34.30;17.37;;;;;;;;;;5016881;28;20416;-68
2023/01/22 05:12:38;;;;;;;39.03;18.08;;;;;;;;;;5025436;28;20283;-68
2023/01/22 05:15:03;;;;;;;37.90;18.80;;;;;;;;;;5017799;28;20504;-68
2023/01/22 05:17:29;;;;;;;37.58;17.55;;;;;;;;;;5023799;28;20030;-68
2023/01/22 05:19:54;;;;;;;31.67;15.73;;;;;;;;;;5021519;28;20028;-68
2023/01/22 05:22:19;;;;;;;36.78;17.98;;;;;;;;;;5025729;28;20021;-68
2023/01/22 05:24:44;;;;;;;33.95;16.50;;;;;;;;;;5029785;28;20022;-68
2023/01/22 05:27:09;;;;;;;34.47;17.27;;;;;;;;;;5029148;28;20484;-68
2023/01/22 05:29:35;;;;;;;33.05;16.52;;;;;;;;;;5028270;28;20013;-68
2023/01/22 05:32:00;;;;;;;30.05;15.07;;;;;;;;;;5026879;28;20096;-68
2023/01/22 05:34:25;;;;;;;31.30;15.82;;;;;;;;;;5030444;28;20029;-68
2023/01/22 05:36:51;;;;;;;26.83;15.30;;;;;;;;;;5028862;28;20084;-68
2023/01/22 05:39:16;;;;;;;27.60;14.45;;;;;;;;;;5026202;28;20399;-69
2023/01/22 05:41:42;;;;;;;28.70;14.43;;;;;;;;;;5028471;28;20393;-68
2023/01/22 05:44:09;;;;;;;28.15;15.27;;;;;;;;;;5025011;28;20018;-68
2023/01/22 05:46:34;;;;;;;27.33;14.13;;;;;;;;;;5028818;28;20026;-68
2023/01/22 05:49:00;;;;;;;28.63;14.38;;;;;;;;;;5028575;28;20020;-68
2023/01/22 05:51:25;;;;;;;30.50;14.45;;;;;;;;;;5027497;28;20022;-68
2023/01/22 05:53:50;;;;;;;26.60;14.13;;;;;;;;;;5030492;28;20032;-68
2023/01/22 05:56:17;;;;;;;29.67;14.60;;;;;;;;;;5008123;28;20029;-68
2023/01/22 05:58:43;;;;;;;30.63;15.18;;;;;;;;;;5027673;28;20032;-69
2023/01/22 06:01:08;;;;;;;28.23;14.40;;;;;;;;;;5024424;28;20394;-68
2023/01/22 06:03:33;;;;;;;25.85;13.32;;;;;;;;;;5025094;28;20493;-68
2023/01/22 06:06:06;;;;;;;30.48;14.02;;;;;;;;;;5026746;28;20249;-68
2023/01/22 06:08:31;;;;;;;25.38;13.48;;;;;;;;;;5028306;28;20021;-68
2023/01/22 06:11:07;;;;;;;27.23;13.20;;;;;;;;;;5009188;28;20025;-68
2023/01/22 06:13:32;;;;;;;26.65;13.55;;;;;;;;;;5029622;28;20020;-68
2023/01/22 06:15:58;;;;;;;27.05;13.32;;;;;;;;;;5030770;28;20026;-68
2023/01/22 06:18:23;;;;;;;25.00;12.70;;;;;;;;;;5027933;28;20473;-68
2023/01/22 06:20:49;;;;;;;26.40;13.10;;;;;;;;;;5009011;28;20351;-68
2023/01/22 06:23:14;;;;;;;27.73;13.13;;;;;;;;;;5026705;28;20018;-68
2023/01/22 06:25:39;;;;;;;27.88;13.18;;;;;;;;;;5029053;28;20060;-69
2023/01/22 06:28:04;;;;;;;24.43;12.67;;;;;;;;;;5024132;28;20040;-68
2023/01/22 06:30:30;;;;;;;25.50;12.90;;;;;;;;;;5030238;28;20343;-68
2023/01/22 06:32:55;;;;;;;26.42;13.18;;;;;;;;;;5023952;28;20021;-68
2023/01/22 06:35:21;;;;;;;25.67;13.30;;;;;;;;;;5028363;28;20088;-68
2023/01/22 06:37:46;;;;;;;24.15;12.93;;;;;;;;;;5026587;28;20299;-68
2023/01/22 06:40:11;;;;;;;20.92;12.38;;;;;;;;;;5027224;28;20037;-68
2023/01/22 06:42:36;;;;;;;24.27;12.52;;;;;;;;;;5031319;28;20109;-68
2023/01/22 06:45:02;;;;;;;25.85;12.60;;;;;;;;;;5027112;28;20028;-68
2023/01/22 06:47:27;;;;;;;27.55;13.57;;;;;;;;;;5028136;28;20406;-68
2023/01/22 06:49:52;;;;;;;28.35;13.18;;;;;;;;;;5007190;28;20021;-68
2023/01/22 06:52:17;;;;;;;25.43;13.07;;;;;;;;;;5029500;28;20036;-68
2023/01/22 06:54:43;;;;;;;24.73;13.85;;;;;;;;;;5026997;28;20675;-68
2023/01/22 06:57:08;;;;;;;28.65;14.55;;;;;;;;;;5029633;28;20044;-68
2023/01/22 06:59:33;;;;;;;24.65;11.45;;;;;;;;;;5024508;28;20022;-68
2023/01/22 07:01:58;;;;;;;23.83;12.93;;;;;;;;;;5025973;28;20123;-68
2023/01/22 07:04:23;;;;;;;25.13;12.57;;;;;;;;;;5022077;28;20030;-68
2023/01/22 07:06:48;;;;;;;26.77;13.35;;;;;;;;;;5025572;28;20276;-69
2023/01/22 07:09:14;;;;;;;24.67;14.18;;;;;;;;;;5003817;28;20140;-68
2023/01/22 07:11:39;;;;;;;24.60;12.95;;;;;;;;;;5021837;28;20414;-68
2023/01/22 07:14:04;;;;;;;23.27;11.63;;;;;;;;;;5017851;28;20026;-69
2023/01/22 07:16:29;;;;;;;21.77;11.70;;;;;;;;;;5022103;28;20128;-69
2023/01/22 07:18:54;;;;;;;26.63;12.73;;;;;;;;;;5024062;28;20033;-69
2023/01/22 07:21:20;;;;;;;26.90;13.17;;;;;;;;;;5021150;28;20307;-68
2023/01/22 07:23:45;;;;;;;23.00;11.53;;;;;;;;;;5025426;28;20404;-68
2023/01/22 07:26:10;;;;;;;26.02;13.07;;;;;;;;;;5020542;28;20276;-68
2023/01/22 07:28:35;;;;;;;24.48;12.77;;;;;;;;;;5022270;28;20018;-68
2023/01/22 07:31:02;;;;;;;25.88;12.50;;;;;;;;;;5019093;28;20025;-68
2023/01/22 07:33:27;;;;;;;25.27;13.25;;;;;;;;;;5026828;28;20395;-68
2023/01/22 07:35:54;;;;;;;26.55;12.80;;;;;;;;;;5026943;28;20024;-68
2023/01/22 07:38:19;;;;;;;27.23;13.20;;;;;;;;;;5024431;28;20026;-68
2023/01/22 07:40:44;;;;;;;27.27;12.83;;;;;;;;;;5020285;28;20045;-68
2023/01/22 07:43:13;;;;;;;25.17;12.50;;;;;;;;;;5016795;28;20284;-68
2023/01/22 07:45:38;;;;;;;25.40;12.40;;;;;;;;;;5020608;28;20025;-68
2023/01/22 07:48:06;;;;;;;24.43;12.53;;;;;;;;;;5019927;28;20080;-68
2023/01/22 07:50:31;;;;;;;30.02;14.32;;;;;;;;;;5019650;28;20269;-68
2023/01/22 07:52:59;;;;;;;28.15;13.73;;;;;;;;;;5024378;28;20532;-68
2023/01/22 07:55:24;;;;;;;25.05;12.48;;;;;;;;;;5025035;28;20033;-68
2023/01/22 07:57:59;;;;;;;26.75;13.90;;;;;;;;;;5024783;28;20038;-68
2023/01/22 08:00:25;;;;;;;25.45;13.10;;;;;;;;;;5025522;28;20101;-68
2023/01/22 08:02:50;;;;;;;24.88;11.68;;;;;;;;;;5025683;28;20112;-68
2023/01/22 08:05:16;;;;;;;26.70;13.38;;;;;;;;;;5025657;28;20029;-68
2023/01/22 08:07:41;;;;;;;23.67;11.23;;;;;;;;;;5027889;28;20112;-68
2023/01/22 08:10:06;;;;;;;24.37;12.80;;;;;;;;;;5024052;28;20347;-68
2023/01/22 08:12:32;;;;;;;24.48;12.15;;;;;;;;;;5021457;28;20375;-68
2023/01/22 08:14:57;;;;;;;26.13;13.52;;;;;;;;;;5023092;28;20029;-68
2023/01/22 08:17:22;;;;;;;22.98;12.38;;;;;;;;;;5027809;28;20561;-68
2023/01/22 08:19:47;;;;;;;23.17;12.18;;;;;;;;;;5019215;28;20026;-68
2023/01/22 08:22:12;;;;;;;26.85;13.10;;;;;;;;;;5025373;28;20036;-68
2023/01/22 08:24:37;;;;;;;28.40;13.30;;;;;;;;;;5025109;28;20097;-68
2023/01/22 08:27:03;;;;;;;26.40;12.95;;;;;;;;;;5022226;28;20339;-69
2023/01/22 08:29:28;;;;;;;24.55;12.75;;;;;;;;;;5023606;28;20021;-69
2023/01/22 08:31:53;;;;;;;25.33;13.00;;;;;;;;;;5019480;28;20029;-69
2023/01/22 08:34:19;;;;;;;21.92;11.93;;;;;;;;;;5022452;28;20287;-69
2023/01/22 08:36:45;;;;;;;25.48;11.85;;;;;;;;;;5020771;28;20084;-70
2023/01/22 08:39:10;;;;;;;27.77;12.65;;;;;;;;;;5017162;28;20401;-70
2023/01/22 08:41:35;;;;;;;29.23;13.38;;;;;;;;;;5018630;28;20117;-68
2023/01/22 08:44:01;;;;;;;28.85;13.48;;;;;;;;;;5019648;28;20064;-70
2023/01/22 08:46:26;;;;;;;28.77;12.93;;;;;;;;;;5024199;28;20013;-69
2023/01/22 08:48:51;;;;;;;25.05;12.85;;;;;;;;;;5027218;28;20020;-69
2023/01/22 08:51:16;;;;;;;24.15;11.63;;;;;;;;;;5027454;28;20032;-69
2023/01/22 08:53:41;;;;;;;25.45;12.60;;;;;;;;;;5028782;28;20053;-69
2023/01/22 08:56:07;;;;;;;23.80;12.25;;;;;;;;;;5025503;28;20426;-69
2023/01/22 08:58:32;;;;;;;24.23;11.95;;;;;;;;;;5027022;28;20549;-69
2023/01/22 09:00:57;;;;;;;30.33;13.35;;;;;;;;;;5028429;28;20025;-67
2023/01/22 09:03:22;;;;;;;24.30;12.70;;;;;;;;;;5027287;28;20032;-69
2023/01/22 09:05:49;;;;;;;26.38;12.60;;;;;;;;;;5026749;28;20018;-69
2023/01/22 09:08:15;;;;;;;25.88;12.27;;;;;;;;;;5027692;28;20021;-68
2023/01/22 09:10:41;;;;;;;23.23;12.63;;;;;;;;;;5025171;28;20132;-69
2023/01/22 09:13:06;;;;;;;24.83;12.52;;;;;;;;;;5025286;28;20467;-68
2023/01/22 09:15:31;;;;;;;27.42;13.30;;;;;;;;;;5027687;28;20100;-70
2023/01/22 09:17:58;;;;;;;24.83;11.93;;;;;;;;;;5024488;28;20061;-70
2023/01/22 09:20:24;;;;;;;24.35;11.82;;;;;;;;;;5026127;28;20147;-70
2023/01/22 09:22:49;;;;;;;25.83;13.85;;;;;;;;;;5025667;28;20136;-68
2023/01/22 09:25:14;;;;;;;26.20;13.90;;;;;;;;;;5026591;28;20022;-68
2023/01/22 09:27:40;;;;;;;22.85;11.85;;;;;;;;;;5024031;28;20028;-69
2023/01/22 09:30:05;;;;;;;27.08;13.32;;;;;;;;;;5027180;28;20494;-69
2023/01/22 09:32:30;;;;;;;23.45;12.73;;;;;;;;;;5023200;28;20449;-69
2023/01/22 09:34:55;;;;;;;24.45;12.52;;;;;;;;;;5025173;28;20750;-69
2023/01/22 09:37:21;;;;;;;25.77;12.43;;;;;;;;;;5026251;28;20104;-69
2023/01/22 09:39:46;;;;;;;26.40;12.93;;;;;;;;;;5027498;28;20676;-69
2023/01/22 09:42:16;;;;;;;25.65;11.45;;;;;;;;;;5021625;28;20026;-68
2023/01/22 09:44:43;;;;;;;24.02;12.43;;;;;;;;;;5025104;28;20505;-69
2023/01/22 09:47:08;;;;;;;22.98;12.23;;;;;;;;;;5022060;28;20014;-69
2023/01/22 09:49:36;;;;;;;24.20;11.57;;;;;;;;;;5026036;28;20040;-69
2023/01/22 09:52:02;;;;;;;23.40;12.93;;;;;;;;;;5027826;28;20280;-69
2023/01/22 09:54:28;;;;;;;24.73;12.75;;;;;;;;;;5025233;28;20017;-68
2023/01/22 09:56:55;;;;;;;24.00;12.02;;;;;;;;;;5010991;28;20729;-68
2023/01/22 09:59:22;;;;;;;22.15;11.45;;;;;;;;;;5026565;28;20476;-68
2023/01/22 10:01:59;;;;;;;20.90;11.23;;;;;;;;;;5026855;28;20017;-68
2023/01/22 10:04:24;;;;;;;21.08;11.18;;;;;;;;;;5025304;28;20030;-68
2023/01/22 10:06:50;;;;;;;19.67;9.88;;;;;;;;;;5028694;28;20481;-68
2023/01/22 10:09:17;;;;;;;22.80;11.65;;;;;;;;;;5014210;28;20323;-68
2023/01/22 10:11:44;;;;;;;20.55;10.18;;;;;;;;;;5029927;28;20377;-68
2023/01/22 10:14:13;;;;;;;20.45;10.35;;;;;;;;;;5023355;28;20021;-69
2023/01/22 10:16:38;;;;;;;21.00;10.45;;;;;;;;;;5017374;28;20394;-69
2023/01/22 10:19:11;;;;;;;19.90;11.00;;;;;;;;;;5023578;28;20025;-69
2023/01/22 10:21:40;;;;;;;22.20;10.23;;;;;;;;;;5017513;28;20044;-70
2023/01/22 10:24:08;;;;;;;22.23;9.68;;;;;;;;;;5027337;28;20025;-69
2023/01/22 10:26:36;;;;;;;17.52;9.98;;;;;;;;;;5031102;28;20540;-68
2023/01/22 10:29:09;;;;;;;19.45;9.77;;;;;;;;;;5024656;28;20029;-68
2023/01/22 10:31:36;;;;;;;20.33;10.27;;;;;;;;;;5025413;28;20750;-68
2023/01/22 10:34:15;;;;;;;17.55;9.38;;;;;;;;;;5028656;28;20033;-69
2023/01/22 10:36:46;;;;;;;16.27;9.63;;;;;;;;;;5021500;28;20025;-69
2023/01/22 10:39:13;;;;;;;15.65;8.10;;;;;;;;;;5028751;28;20441;-69
2023/01/22 10:41:39;;;;;;;15.60;8.45;;;;;;;;;;5027042;28;20017;-70
2023/01/22 10:44:17;;;;;;;13.63;7.45;;;;;;;;;;5029365;28;20017;-70
2023/01/22 10:46:42;;;;;;;14.38;7.32;;;;;;;;;;5020666;28;20025;-70
2023/01/22 10:49:13;;;;;;;14.90;8.02;;;;;;;;;;5021388;28;20512;-69
2023/01/22 10:51:39;;;;;;;16.08;8.10;;;;;;;;;;5023383;28;20029;-70
2023/01/22 10:54:17;;;;;;;15.77;8.30;;;;;;;;;;5021589;28;20075;-69
2023/01/22 10:56:42;;;;;;;13.77;8.38;;;;;;;;;;5021290;28;20120;-70
2023/01/22 10:59:21;;;;;;;12.77;7.53;;;;;;;;;;5025713;28;20791;-70
2023/01/22 11:01:47;;;;;;;16.02;7.50;;;;;;;;;;5019432;28;20033;-69
2023/01/22 11:04:18;;;;;;;12.07;6.78;;;;;;;;;;5020887;28;20040;-69
2023/01/22 11:06:46;;;;;;;11.88;7.20;;;;;;;;;;5027588;28;20088;-69
2023/01/22 11:09:18;;;;;;;12.25;6.90;;;;;;;;;;5027271;28;20065;-71
2023/01/22 11:11:50;;;;;;;10.82;6.05;;;;;;;;;;5027218;28;20033;-69
2023/01/22 11:14:27;;;;;;;12.40;6.72;;;;;;;;;;5026357;28;20036;-69
2023/01/22 11:16:55;;;;;;;10.77;7.03;;;;;;;;;;5026691;28;20508;-67
2023/01/22 11:19:22;;;;;;;11.32;6.47;;;;;;;;;;5021572;28;20033;-69
2023/01/22 11:21:51;;;;;;;12.00;7.28;;;;;;;;;;5024477;28;20447;-67
2023/01/22 11:24:17;;;;;;;13.00;7.43;;;;;;;;;;5026214;28;20025;-70
2023/01/22 11:26:47;;;;;;;13.25;6.63;;;;;;;;;;5026983;28;20010;-69
2023/01/22 11:29:21;;;;;;;11.75;6.80;;;;;;;;;;5024936;28;20017;-68
2023/01/22 11:32:10;;;;;;;11.32;6.55;;;;;;;;;;5025660;28;20025;-69
2023/01/22 11:34:41;;;;;;;13.30;7.53;;;;;;;;;;4984195;28;20033;-69
2023/01/22 11:37:09;;;;;;;13.68;7.47;;;;;;;;;;5007913;28;20076;-68
2023/01/22 11:39:40;;;;;;;14.23;7.25;;;;;;;;;;5018128;28;20017;-69
2023/01/22 11:42:16;;;;;;;11.93;7.53;;;;;;;;;;5022544;28;20412;-69
2023/01/22 11:45:00;;;;;;;10.77;6.35;;;;;;;;;;5027923;28;20021;-69
2023/01/22 11:47:39;;;;;;;13.27;7.40;;;;;;;;;;5024837;28;20025;-69
2023/01/22 11:50:18;;;;;;;14.03;8.00;;;;;;;;;;5025436;28;20496;-69
2023/01/22 11:52:46;;;;;;;12.05;7.22;;;;;;;;;;5020771;28;20025;-68
2023/01/22 11:55:17;;;;;;;13.23;7.55;;;;;;;;;;5019773;28;20303;-69
2023/01/22 11:57:47;;;;;;;17.35;8.75;;;;;;;;;;5019979;28;20022;-69
2023/01/22 12:00:31;;;;;;;15.88;7.32;;;;;;;;;;5027846;28;20029;-68
2023/01/22 12:03:15;;;;;;;13.15;7.15;;;;;;;;;;5027787;28;20025;-68
2023/01/22 12:05:40;;;;;;;12.55;7.40;;;;;;;;;;5028647;28;20017;-68
2023/01/22 12:08:24;;;;;;;14.23;7.65;;;;;;;;;;5028076;28;20013;-68
2023/01/22 12:11:06;;;;;;;13.40;7.47;;;;;;;;;;5023003;28;20692;-69
2023/01/22 12:13:43;;;;;;;12.25;7.65;;;;;;;;;;5027063;28;20022;-69
2023/01/22 12:16:13;;;;;;;14.70;7.95;;;;;;;;;;5029650;28;20474;-67
2023/01/22 12:18:57;;;;;;;16.27;8.07;;;;;;;;;;5006792;28;20477;-68
2023/01/22 12:21:28;;;;;;;12.73;7.25;;;;;;;;;;5029812;28;20037;-68
2023/01/22 12:24:13;;;;;;;12.07;7.18;;;;;;;;;;5027860;28;20363;-68
2023/01/22 12:26:45;;;;;;;12.68;7.68;;;;;;;;;;5027095;28;20052;-68
2023/01/22 12:29:29;;;;;;;13.27;7.68;;;;;;;;;;5010485;28;20060;-69
2023/01/22 12:31:54;;;;;;;14.80;8.65;;;;;;;;;;5025378;28;20093;-70
2023/01/22 12:34:24;;;;;;;11.25;6.70;;;;;;;;;;5022554;28;20017;-69
2023/01/22 12:36:50;;;;;;;12.18;6.45;;;;;;;;;;5025779;28;20272;-70
2023/01/22 12:39:25;;;;;;;10.98;6.68;;;;;;;;;;5024848;28;20018;-70
2023/01/22 12:42:06;;;;;;;12.60;6.57;;;;;;;;;;5027033;28;20021;-69
2023/01/22 12:44:31;;;;;;;11.60;6.57;;;;;;;;;;5024593;28;20025;-70
2023/01/22 12:47:22;;;;;;;11.17;6.10;;;;;;;;;;5027314;28;20029;-70
2023/01/22 12:49:49;;;;;;;11.10;6.18;;;;;;;;;;4995280;28;20794;-69
2023/01/22 12:52:28;;;;;;;11.60;6.50;;;;;;;;;;5025197;28;20034;-69
2023/01/22 12:54:54;;;;;;;10.80;6.07;;;;;;;;;;5024559;28;20504;-69
2023/01/22 12:57:22;;;;;;;12.52;7.60;;;;;;;;;;5027042;28;20026;-70
2023/01/22 12:59:51;;;;;;;10.57;6.25;;;;;;;;;;5026208;28;20033;-69
2023/01/22 13:02:26;;;;;;;12.83;6.73;;;;;;;;;;5024777;28;20021;-69
2023/01/22 13:04:51;;;;;;;11.32;7.05;;;;;;;;;;5007998;28;21072;-69
2023/01/22 13:07:23;;;;;;;11.35;7.18;;;;;;;;;;5023083;28;20026;-69
2023/01/22 13:10:01;;;;;;;9.98;6.30;;;;;;;;;;5022587;28;20071;-69
2023/01/22 13:12:27;;;;;;;10.77;6.30;;;;;;;;;;5026820;28;20474;-69
2023/01/22 13:14:53;;;;;;;9.68;6.07;;;;;;;;;;5024961;28;20072;-69
2023/01/22 13:17:20;;;;;;;10.25;6.40;;;;;;;;;;5028115;28;20100;-69
2023/01/22 13:20:13;;;;;;;12.93;6.75;;;;;;;;;;5020451;28;20022;-69
2023/01/22 13:22:40;;;;;;;13.10;7.40;;;;;;;;;;5022028;28;20013;-69
2023/01/22 13:25:21;;;;;;;13.07;7.63;;;;;;;;;;5025745;28;20057;-69
2023/01/22 13:27:47;;;;;;;13.10;7.78;;;;;;;;;;5032291;28;20454;-69
2023/01/22 13:30:12;;;;;;;13.02;7.20;;;;;;;;;;5031819;28;20511;-69
2023/01/22 13:32:37;;;;;;;11.35;7.28;;;;;;;;;;5029502;28;20120;-69
2023/01/22 13:40:19;;;;;;;11.88;7.68;;;;;;;;;;5028130;26;19929;-69
2023/01/22 13:42:45;;;;;;;12.27;7.15;;;;;;;;;;5047254;28;20094;-69
2023/01/22 13:45:15;;;;;;;14.27;7.13;;;;;;;;;;5052157;28;20462;-69
2023/01/22 13:47:40;;;;;;;15.98;8.15;;;;;;;;;;5050713;28;20052;-69
2023/01/22 13:50:05;;;;;;;11.63;7.20;;;;;;;;;;5033370;28;20064;-69
2023/01/22 13:52:32;;;;;;;15.50;7.00;;;;;;;;;;5049399;28;20036;-69
2023/01/22 13:55:04;;;;;;;14.32;7.35;;;;;;;;;;5048608;28;20388;-70
2023/01/22 13:57:29;;;;;;;12.82;7.50;;;;;;;;;;5050985;28;20021;-69
2023/01/22 13:59:55;;;;;;;12.52;7.38;;;;;;;;;;5048563;28;20126;-67
2023/01/22 14:02:22;;;;;;;13.85;7.18;;;;;;;;;;5050579;28;20033;-68
2023/01/22 14:04:47;;;;;;;16.40;7.45;;;;;;;;;;5049417;28;20512;-67
2023/01/22 14:07:26;;;;;;;15.88;8.65;;;;;;;;;;5051892;28;20116;-68
2023/01/22 14:09:51;;;;;;;16.58;9.07;;;;;;;;;;5050986;28;20021;-69
2023/01/22 14:12:21;;;;;;;13.73;8.02;;;;;;;;;;5050373;28;20108;-68
2023/01/22 14:14:46;;;;;;;14.30;8.25;;;;;;;;;;5032253;28;20024;-68
2023/01/22 14:17:24;;;;;;;17.13;8.18;;;;;;;;;;5049804;28;20029;-68
2023/01/22 14:19:49;;;;;;;14.77;8.00;;;;;;;;;;5024407;28;20060;-68
2023/01/22 14:22:16;;;;;;;14.20;7.40;;;;;;;;;;5050261;28;20048;-68
2023/01/22 14:24:42;;;;;;;14.63;8.63;;;;;;;;;;5053298;28;20322;-68
2023/01/22 14:27:07;;;;;;;15.48;7.45;;;;;;;;;;5050195;28;20051;-68
2023/01/22 14:29:32;;;;;;;14.07;8.05;;;;;;;;;;5049288;28;20031;-69
2023/01/22 14:31:57;;;;;;;13.70;8.43;;;;;;;;;;5049942;28;20074;-69
2023/01/22 14:34:23;;;;;;;15.73;8.55;;;;;;;;;;5031812;28;20028;-69